sensor_id;sensor_type;location;lat;lon;timestamp;P1;durP1;ratioP1;P2;durP2;ratioP2
65879;SDS011;52661;51.364;6.054;2022-07-06T00:02:13;2.80;;;1.30;;
65879;SDS011;52661;51.364;6.054;2022-07-06T00:04:38;3.97;;;1.87;;
65879;SDS011;52661;51.364;6.054;2022-07-06T00:07:04;3.00;;;2.10;;
65879;SDS011;52661;51.364;6.054;2022-07-06T00:09:29;3.53;;;2.25;;
65879;SDS011;52661;51.364;6.054;2022-07-06T00:11:54;3.20;;;1.87;;
65879;SDS011;52661;51.364;6.054;2022-07-06T00:14:20;3.97;;;1.77;;
65879;SDS011;52661;51.364;6.054;2022-07-06T00:16:45;3.03;;;2.35;;
65879;SDS011;52661;51.364;6.054;2022-07-06T00:19:11;3.35;;;2.13;;
65879;SDS011;52661;51.364;6.054;2022-07-06T00:21:36;3.33;;;1.80;;
65879;SDS011;52661;51.364;6.054;2022-07-06T00:24:02;4.40;;;2.05;;
65879;SDS011;52661;51.364;6.054;2022-07-06T00:26:27;4.30;;;1.92;;
65879;SDS011;52661;51.364;6.054;2022-07-06T00:28:53;3.07;;;1.07;;
65879;SDS011;52661;51.364;6.054;2022-07-06T00:31:18;3.88;;;1.92;;
65879;SDS011;52661;51.364;6.054;2022-07-06T00:33:43;5.17;;;1.77;;
65879;SDS011;52661;51.364;6.054;2022-07-06T00:36:08;3.90;;;2.07;;
65879;SDS011;52661;51.364;6.054;2022-07-06T00:38:34;4.32;;;1.80;;
65879;SDS011;52661;51.364;6.054;2022-07-06T00:40:59;3.25;;;1.85;;
65879;SDS011;52661;51.364;6.054;2022-07-06T00:43:25;6.23;;;2.13;;
65879;SDS011;52661;51.364;6.054;2022-07-06T00:45:50;6.47;;;2.03;;
65879;SDS011;52661;51.364;6.054;2022-07-06T00:48:15;3.33;;;1.85;;
65879;SDS011;52661;51.364;6.054;2022-07-06T00:50:41;4.03;;;2.08;;
65879;SDS011;52661;51.364;6.054;2022-07-06T00:53:07;5.78;;;2.92;;
65879;SDS011;52661;51.364;6.054;2022-07-06T00:55:34;3.83;;;1.75;;
65879;SDS011;52661;51.364;6.054;2022-07-06T00:58:02;3.97;;;1.92;;
65879;SDS011;52661;51.364;6.054;2022-07-06T01:00:29;3.05;;;2.38;;
65879;SDS011;52661;51.364;6.054;2022-07-06T01:02:54;3.35;;;1.42;;
65879;SDS011;52661;51.364;6.054;2022-07-06T01:05:20;4.65;;;1.88;;
65879;SDS011;52661;51.364;6.054;2022-07-06T01:07:47;3.20;;;2.00;;
65879;SDS011;52661;51.364;6.054;2022-07-06T01:10:15;2.63;;;1.67;;
65879;SDS011;52661;51.364;6.054;2022-07-06T01:12:43;4.78;;;2.28;;
65879;SDS011;52661;51.364;6.054;2022-07-06T01:17:38;3.00;;;2.08;;
65879;SDS011;52661;51.364;6.054;2022-07-06T01:22:37;4.18;;;2.13;;
65879;SDS011;52661;51.364;6.054;2022-07-06T01:25:03;4.75;;;1.98;;
65879;SDS011;52661;51.364;6.054;2022-07-06T01:27:29;3.40;;;1.88;;
65879;SDS011;52661;51.364;6.054;2022-07-06T01:29:54;4.10;;;2.20;;
65879;SDS011;52661;51.364;6.054;2022-07-06T01:32:19;4.30;;;2.30;;
65879;SDS011;52661;51.364;6.054;2022-07-06T01:34:45;4.07;;;1.93;;
65879;SDS011;52661;51.364;6.054;2022-07-06T01:37:10;4.18;;;2.30;;
65879;SDS011;52661;51.364;6.054;2022-07-06T01:39:36;5.53;;;2.83;;
65879;SDS011;52661;51.364;6.054;2022-07-06T01:42:02;5.57;;;2.67;;
65879;SDS011;52661;51.364;6.054;2022-07-06T01:44:27;4.18;;;2.80;;
65879;SDS011;52661;51.364;6.054;2022-07-06T01:46:53;3.93;;;2.53;;
65879;SDS011;52661;51.364;6.054;2022-07-06T01:49:18;5.23;;;3.87;;
65879;SDS011;52661;51.364;6.054;2022-07-06T01:51:43;5.07;;;2.43;;
65879;SDS011;52661;51.364;6.054;2022-07-06T01:54:08;4.80;;;2.03;;
65879;SDS011;52661;51.364;6.054;2022-07-06T01:56:34;4.25;;;2.45;;
65879;SDS011;52661;51.364;6.054;2022-07-06T01:58:59;5.25;;;1.77;;
65879;SDS011;52661;51.364;6.054;2022-07-06T02:01:24;4.07;;;2.50;;
65879;SDS011;52661;51.364;6.054;2022-07-06T02:03:50;3.38;;;2.08;;
65879;SDS011;52661;51.364;6.054;2022-07-06T02:06:15;3.97;;;2.40;;
65879;SDS011;52661;51.364;6.054;2022-07-06T02:08:41;4.65;;;2.50;;
65879;SDS011;52661;51.364;6.054;2022-07-06T02:11:08;4.47;;;2.05;;
65879;SDS011;52661;51.364;6.054;2022-07-06T02:13:34;5.32;;;2.63;;
65879;SDS011;52661;51.364;6.054;2022-07-06T02:16:00;6.80;;;3.63;;
65879;SDS011;52661;51.364;6.054;2022-07-06T02:18:26;5.63;;;2.60;;
65879;SDS011;52661;51.364;6.054;2022-07-06T02:20:52;3.22;;;1.80;;
65879;SDS011;52661;51.364;6.054;2022-07-06T02:23:17;3.53;;;1.95;;
65879;SDS011;52661;51.364;6.054;2022-07-06T02:25:42;5.60;;;2.40;;
65879;SDS011;52661;51.364;6.054;2022-07-06T02:28:08;4.40;;;2.23;;
65879;SDS011;52661;51.364;6.054;2022-07-06T02:30:33;4.90;;;2.27;;
65879;SDS011;52661;51.364;6.054;2022-07-06T02:32:58;3.40;;;2.17;;
65879;SDS011;52661;51.364;6.054;2022-07-06T02:35:24;4.68;;;2.55;;
65879;SDS011;52661;51.364;6.054;2022-07-06T02:37:49;5.35;;;2.38;;
65879;SDS011;52661;51.364;6.054;2022-07-06T02:40:15;4.93;;;2.10;;
65879;SDS011;52661;51.364;6.054;2022-07-06T02:42:40;8.50;;;2.43;;
65879;SDS011;52661;51.364;6.054;2022-07-06T02:45:05;4.32;;;2.45;;
65879;SDS011;52661;51.364;6.054;2022-07-06T02:47:31;4.07;;;2.33;;
65879;SDS011;52661;51.364;6.054;2022-07-06T02:49:56;3.57;;;1.63;;
65879;SDS011;52661;51.364;6.054;2022-07-06T02:52:22;6.07;;;2.93;;
65879;SDS011;52661;51.364;6.054;2022-07-06T02:54:47;3.77;;;2.37;;
65879;SDS011;52661;51.364;6.054;2022-07-06T02:57:13;3.30;;;1.67;;
65879;SDS011;52661;51.364;6.054;2022-07-06T02:59:39;4.45;;;2.72;;
65879;SDS011;52661;51.364;6.054;2022-07-06T03:02:05;4.57;;;2.45;;
65879;SDS011;52661;51.364;6.054;2022-07-06T03:04:30;4.72;;;2.78;;
65879;SDS011;52661;51.364;6.054;2022-07-06T03:06:55;3.95;;;2.30;;
65879;SDS011;52661;51.364;6.054;2022-07-06T03:09:21;3.37;;;2.40;;
65879;SDS011;52661;51.364;6.054;2022-07-06T03:11:46;6.05;;;2.50;;
65879;SDS011;52661;51.364;6.054;2022-07-06T03:14:11;5.60;;;2.50;;
65879;SDS011;52661;51.364;6.054;2022-07-06T03:16:37;5.82;;;2.03;;
65879;SDS011;52661;51.364;6.054;2022-07-06T03:19:02;6.05;;;2.47;;
65879;SDS011;52661;51.364;6.054;2022-07-06T03:21:27;3.97;;;2.50;;
65879;SDS011;52661;51.364;6.054;2022-07-06T03:23:53;4.43;;;2.37;;
65879;SDS011;52661;51.364;6.054;2022-07-06T03:26:18;6.03;;;2.70;;
65879;SDS011;52661;51.364;6.054;2022-07-06T03:28:43;4.60;;;2.47;;
65879;SDS011;52661;51.364;6.054;2022-07-06T03:31:09;4.23;;;2.53;;
65879;SDS011;52661;51.364;6.054;2022-07-06T03:33:34;4.20;;;2.67;;
65879;SDS011;52661;51.364;6.054;2022-07-06T03:35:59;5.00;;;2.75;;
65879;SDS011;52661;51.364;6.054;2022-07-06T03:38:25;4.10;;;2.53;;
65879;SDS011;52661;51.364;6.054;2022-07-06T03:40:50;5.80;;;2.55;;
65879;SDS011;52661;51.364;6.054;2022-07-06T03:43:15;5.22;;;2.47;;
65879;SDS011;52661;51.364;6.054;2022-07-06T03:45:41;5.95;;;2.90;;
65879;SDS011;52661;51.364;6.054;2022-07-06T03:48:06;6.30;;;3.53;;
65879;SDS011;52661;51.364;6.054;2022-07-06T03:50:32;3.90;;;2.93;;
65879;SDS011;52661;51.364;6.054;2022-07-06T03:52:57;6.03;;;3.30;;
65879;SDS011;52661;51.364;6.054;2022-07-06T03:55:22;7.17;;;2.53;;
65879;SDS011;52661;51.364;6.054;2022-07-06T03:57:48;4.95;;;3.25;;
65879;SDS011;52661;51.364;6.054;2022-07-06T04:00:13;4.75;;;3.25;;
65879;SDS011;52661;51.364;6.054;2022-07-06T04:02:39;4.20;;;2.78;;
65879;SDS011;52661;51.364;6.054;2022-07-06T04:05:04;4.47;;;1.95;;
65879;SDS011;52661;51.364;6.054;2022-07-06T04:07:30;3.83;;;2.67;;
65879;SDS011;52661;51.364;6.054;2022-07-06T04:09:55;4.13;;;2.78;;
65879;SDS011;52661;51.364;6.054;2022-07-06T04:12:21;4.88;;;2.30;;
65879;SDS011;52661;51.364;6.054;2022-07-06T04:14:46;5.20;;;2.58;;
65879;SDS011;52661;51.364;6.054;2022-07-06T04:17:11;6.30;;;3.43;;
65879;SDS011;52661;51.364;6.054;2022-07-06T04:19:55;4.95;;;2.90;;
65879;SDS011;52661;51.364;6.054;2022-07-06T04:22:20;5.77;;;2.83;;
65879;SDS011;52661;51.364;6.054;2022-07-06T04:24:46;6.90;;;3.23;;
65879;SDS011;52661;51.364;6.054;2022-07-06T04:27:11;6.45;;;3.30;;
65879;SDS011;52661;51.364;6.054;2022-07-06T04:29:36;4.80;;;3.40;;
65879;SDS011;52661;51.364;6.054;2022-07-06T04:32:02;6.75;;;3.00;;
65879;SDS011;52661;51.364;6.054;2022-07-06T04:34:28;10.43;;;3.60;;
65879;SDS011;52661;51.364;6.054;2022-07-06T04:36:53;8.57;;;3.37;;
65879;SDS011;52661;51.364;6.054;2022-07-06T04:39:18;5.60;;;3.23;;
65879;SDS011;52661;51.364;6.054;2022-07-06T04:41:44;7.73;;;3.07;;
65879;SDS011;52661;51.364;6.054;2022-07-06T04:44:09;4.93;;;3.33;;
65879;SDS011;52661;51.364;6.054;2022-07-06T04:46:34;6.73;;;2.50;;
65879;SDS011;52661;51.364;6.054;2022-07-06T04:48:59;6.10;;;3.77;;
65879;SDS011;52661;51.364;6.054;2022-07-06T04:51:25;6.83;;;3.30;;
65879;SDS011;52661;51.364;6.054;2022-07-06T04:53:50;5.80;;;3.07;;
65879;SDS011;52661;51.364;6.054;2022-07-06T04:56:15;9.73;;;4.07;;
65879;SDS011;52661;51.364;6.054;2022-07-06T04:58:41;6.00;;;3.17;;
65879;SDS011;52661;51.364;6.054;2022-07-06T05:01:06;7.77;;;3.43;;
65879;SDS011;52661;51.364;6.054;2022-07-06T05:03:32;5.18;;;3.25;;
65879;SDS011;52661;51.364;6.054;2022-07-06T05:06:00;5.57;;;3.08;;
65879;SDS011;52661;51.364;6.054;2022-07-06T05:08:25;5.57;;;3.22;;
65879;SDS011;52661;51.364;6.054;2022-07-06T05:10:50;6.50;;;3.70;;
65879;SDS011;52661;51.364;6.054;2022-07-06T05:13:16;7.65;;;3.95;;
65879;SDS011;52661;51.364;6.054;2022-07-06T05:15:42;5.13;;;3.30;;
65879;SDS011;52661;51.364;6.054;2022-07-06T05:18:07;5.80;;;3.80;;
65879;SDS011;52661;51.364;6.054;2022-07-06T05:20:32;7.70;;;4.00;;
65879;SDS011;52661;51.364;6.054;2022-07-06T05:22:57;7.27;;;3.37;;
65879;SDS011;52661;51.364;6.054;2022-07-06T05:25:23;6.37;;;3.83;;
65879;SDS011;52661;51.364;6.054;2022-07-06T05:27:48;17.25;;;3.50;;
65879;SDS011;52661;51.364;6.054;2022-07-06T05:30:13;7.60;;;3.43;;
65879;SDS011;52661;51.364;6.054;2022-07-06T05:32:40;4.53;;;3.28;;
65879;SDS011;52661;51.364;6.054;2022-07-06T05:35:06;5.72;;;3.20;;
65879;SDS011;52661;51.364;6.054;2022-07-06T05:37:32;6.50;;;2.90;;
65879;SDS011;52661;51.364;6.054;2022-07-06T05:39:57;6.77;;;2.97;;
65879;SDS011;52661;51.364;6.054;2022-07-06T05:42:22;5.43;;;2.80;;
65879;SDS011;52661;51.364;6.054;2022-07-06T05:44:48;6.00;;;2.75;;
65879;SDS011;52661;51.364;6.054;2022-07-06T05:47:13;4.73;;;2.33;;
65879;SDS011;52661;51.364;6.054;2022-07-06T05:49:57;3.90;;;1.50;;
65879;SDS011;52661;51.364;6.054;2022-07-06T05:52:41;5.88;;;2.45;;
65879;SDS011;52661;51.364;6.054;2022-07-06T05:55:08;5.72;;;2.30;;
65879;SDS011;52661;51.364;6.054;2022-07-06T05:57:34;5.78;;;3.17;;
65879;SDS011;52661;51.364;6.054;2022-07-06T06:00:00;4.00;;;2.08;;
65879;SDS011;52661;51.364;6.054;2022-07-06T06:02:25;7.15;;;2.10;;
65879;SDS011;52661;51.364;6.054;2022-07-06T06:04:51;4.37;;;2.17;;
65879;SDS011;52661;51.364;6.054;2022-07-06T06:07:16;7.27;;;1.57;;
65879;SDS011;52661;51.364;6.054;2022-07-06T06:09:41;3.88;;;1.85;;
65879;SDS011;52661;51.364;6.054;2022-07-06T06:12:07;4.57;;;2.13;;
65879;SDS011;52661;51.364;6.054;2022-07-06T06:14:32;4.47;;;1.75;;
65879;SDS011;52661;51.364;6.054;2022-07-06T06:16:58;3.70;;;1.83;;
65879;SDS011;52661;51.364;6.054;2022-07-06T06:19:24;2.95;;;1.50;;
65879;SDS011;52661;51.364;6.054;2022-07-06T06:21:49;3.22;;;1.42;;
65879;SDS011;52661;51.364;6.054;2022-07-06T06:24:16;2.53;;;1.25;;
65879;SDS011;52661;51.364;6.054;2022-07-06T06:26:42;3.05;;;1.27;;
65879;SDS011;52661;51.364;6.054;2022-07-06T06:29:07;3.03;;;1.65;;
65879;SDS011;52661;51.364;6.054;2022-07-06T06:31:32;3.63;;;1.57;;
65879;SDS011;52661;51.364;6.054;2022-07-06T06:33:58;5.57;;;1.60;;
65879;SDS011;52661;51.364;6.054;2022-07-06T06:36:23;5.17;;;1.33;;
65879;SDS011;52661;51.364;6.054;2022-07-06T06:38:48;4.23;;;2.23;;
65879;SDS011;52661;51.364;6.054;2022-07-06T06:41:13;4.03;;;1.30;;
65879;SDS011;52661;51.364;6.054;2022-07-06T06:43:39;3.53;;;1.50;;
65879;SDS011;52661;51.364;6.054;2022-07-06T06:46:04;2.97;;;1.43;;
65879;SDS011;52661;51.364;6.054;2022-07-06T06:48:29;3.43;;;1.30;;
65879;SDS011;52661;51.364;6.054;2022-07-06T06:50:56;2.97;;;1.33;;
65879;SDS011;52661;51.364;6.054;2022-07-06T06:53:21;3.22;;;1.60;;
65879;SDS011;52661;51.364;6.054;2022-07-06T06:55:47;4.33;;;1.93;;
65879;SDS011;52661;51.364;6.054;2022-07-06T06:58:12;3.73;;;1.27;;
65879;SDS011;52661;51.364;6.054;2022-07-06T07:00:37;4.37;;;1.27;;
65879;SDS011;52661;51.364;6.054;2022-07-06T07:03:02;2.50;;;1.43;;
65879;SDS011;52661;51.364;6.054;2022-07-06T07:05:28;3.17;;;1.45;;
65879;SDS011;52661;51.364;6.054;2022-07-06T07:07:53;5.17;;;0.70;;
65879;SDS011;52661;51.364;6.054;2022-07-06T07:10:19;1.77;;;1.05;;
65879;SDS011;52661;51.364;6.054;2022-07-06T07:12:46;4.22;;;1.55;;
65879;SDS011;52661;51.364;6.054;2022-07-06T07:15:12;5.07;;;1.33;;
65879;SDS011;52661;51.364;6.054;2022-07-06T07:17:38;5.15;;;1.45;;
65879;SDS011;52661;51.364;6.054;2022-07-06T07:20:04;3.42;;;1.05;;
65879;SDS011;52661;51.364;6.054;2022-07-06T07:22:30;2.58;;;1.20;;
65879;SDS011;52661;51.364;6.054;2022-07-06T07:24:55;2.50;;;1.50;;
65879;SDS011;52661;51.364;6.054;2022-07-06T07:27:21;2.87;;;1.30;;
65879;SDS011;52661;51.364;6.054;2022-07-06T07:29:46;1.40;;;0.80;;
65879;SDS011;52661;51.364;6.054;2022-07-06T07:32:11;4.20;;;2.05;;
65879;SDS011;52661;51.364;6.054;2022-07-06T07:34:37;2.22;;;0.60;;
65879;SDS011;52661;51.364;6.054;2022-07-06T07:37:02;1.97;;;1.40;;
65879;SDS011;52661;51.364;6.054;2022-07-06T07:39:28;2.03;;;0.93;;
65879;SDS011;52661;51.364;6.054;2022-07-06T07:41:53;5.10;;;1.00;;
65879;SDS011;52661;51.364;6.054;2022-07-06T07:44:18;2.00;;;0.68;;
65879;SDS011;52661;51.364;6.054;2022-07-06T07:46:44;4.43;;;0.70;;
65879;SDS011;52661;51.364;6.054;2022-07-06T07:49:09;3.10;;;0.80;;
65879;SDS011;52661;51.364;6.054;2022-07-06T07:51:34;3.00;;;0.63;;
65879;SDS011;52661;51.364;6.054;2022-07-06T07:54:00;2.10;;;0.80;;
65879;SDS011;52661;51.364;6.054;2022-07-06T07:56:25;2.93;;;0.83;;
65879;SDS011;52661;51.364;6.054;2022-07-06T07:58:50;3.70;;;1.17;;
65879;SDS011;52661;51.364;6.054;2022-07-06T08:01:16;1.40;;;1.10;;
65879;SDS011;52661;51.364;6.054;2022-07-06T08:03:41;2.97;;;0.90;;
65879;SDS011;52661;51.364;6.054;2022-07-06T08:06:06;1.33;;;0.63;;
65879;SDS011;52661;51.364;6.054;2022-07-06T08:08:32;2.83;;;0.68;;
65879;SDS011;52661;51.364;6.054;2022-07-06T08:10:57;2.60;;;1.23;;
65879;SDS011;52661;51.364;6.054;2022-07-06T08:13:22;1.57;;;0.20;;
65879;SDS011;52661;51.364;6.054;2022-07-06T08:15:48;2.73;;;1.40;;
65879;SDS011;52661;51.364;6.054;2022-07-06T08:18:13;2.50;;;0.90;;
65879;SDS011;52661;51.364;6.054;2022-07-06T08:20:38;1.80;;;0.97;;
65879;SDS011;52661;51.364;6.054;2022-07-06T08:23:04;2.85;;;1.05;;
65879;SDS011;52661;51.364;6.054;2022-07-06T08:25:30;1.90;;;0.88;;
65879;SDS011;52661;51.364;6.054;2022-07-06T08:27:57;1.83;;;0.73;;
65879;SDS011;52661;51.364;6.054;2022-07-06T08:30:23;2.10;;;0.80;;
65879;SDS011;52661;51.364;6.054;2022-07-06T08:32:48;1.50;;;0.63;;
65879;SDS011;52661;51.364;6.054;2022-07-06T08:35:14;2.75;;;0.80;;
65879;SDS011;52661;51.364;6.054;2022-07-06T08:37:39;3.50;;;0.60;;
65879;SDS011;52661;51.364;6.054;2022-07-06T08:40:05;1.85;;;1.40;;
65879;SDS011;52661;51.364;6.054;2022-07-06T08:42:33;4.03;;;0.88;;
65879;SDS011;52661;51.364;6.054;2022-07-06T08:44:59;2.88;;;1.35;;
65879;SDS011;52661;51.364;6.054;2022-07-06T08:47:28;1.60;;;0.85;;
65879;SDS011;52661;51.364;6.054;2022-07-06T08:49:55;3.25;;;1.10;;
65879;SDS011;52661;51.364;6.054;2022-07-06T08:52:21;3.90;;;1.67;;
65879;SDS011;52661;51.364;6.054;2022-07-06T08:54:48;2.47;;;0.70;;
65879;SDS011;52661;51.364;6.054;2022-07-06T08:57:13;1.70;;;0.70;;
65879;SDS011;52661;51.364;6.054;2022-07-06T08:59:39;1.95;;;1.25;;
65879;SDS011;52661;51.364;6.054;2022-07-06T09:02:05;3.22;;;0.93;;
65879;SDS011;52661;51.364;6.054;2022-07-06T09:04:32;2.38;;;0.75;;
65879;SDS011;52661;51.364;6.054;2022-07-06T09:06:58;1.33;;;1.00;;
65879;SDS011;52661;51.364;6.054;2022-07-06T09:09:23;4.70;;;1.03;;
65879;SDS011;52661;51.364;6.054;2022-07-06T09:11:49;3.33;;;0.77;;
65879;SDS011;52661;51.364;6.054;2022-07-06T09:14:15;2.38;;;1.02;;
65879;SDS011;52661;51.364;6.054;2022-07-06T09:16:40;2.17;;;1.15;;
65879;SDS011;52661;51.364;6.054;2022-07-06T09:19:15;2.13;;;0.88;;
65879;SDS011;52661;51.364;6.054;2022-07-06T09:21:41;2.78;;;0.80;;
65879;SDS011;52661;51.364;6.054;2022-07-06T09:24:10;0.90;;;0.50;;
65879;SDS011;52661;51.364;6.054;2022-07-06T09:26:37;1.15;;;0.77;;
65879;SDS011;52661;51.364;6.054;2022-07-06T09:29:03;4.57;;;0.60;;
65879;SDS011;52661;51.364;6.054;2022-07-06T09:31:29;2.10;;;0.85;;
65879;SDS011;52661;51.364;6.054;2022-07-06T09:34:03;1.48;;;1.05;;
65879;SDS011;52661;51.364;6.054;2022-07-06T09:36:48;2.50;;;0.73;;
65879;SDS011;52661;51.364;6.054;2022-07-06T09:39:25;1.63;;;1.08;;
65879;SDS011;52661;51.364;6.054;2022-07-06T09:42:00;2.35;;;0.88;;
65879;SDS011;52661;51.364;6.054;2022-07-06T09:44:29;2.65;;;1.52;;
65879;SDS011;52661;51.364;6.054;2022-07-06T09:46:59;2.25;;;2.05;;
65879;SDS011;52661;51.364;6.054;2022-07-06T09:49:26;1.30;;;0.80;;
65879;SDS011;52661;51.364;6.054;2022-07-06T09:51:56;1.52;;;0.77;;
65879;SDS011;52661;51.364;6.054;2022-07-06T09:54:25;3.10;;;0.98;;
65879;SDS011;52661;51.364;6.054;2022-07-06T09:56:51;1.58;;;0.57;;
65879;SDS011;52661;51.364;6.054;2022-07-06T09:59:27;3.20;;;0.52;;
65879;SDS011;52661;51.364;6.054;2022-07-06T10:01:58;1.27;;;0.77;;
65879;SDS011;52661;51.364;6.054;2022-07-06T10:04:28;3.65;;;1.23;;
65879;SDS011;52661;51.364;6.054;2022-07-06T10:06:55;1.38;;;1.17;;
65879;SDS011;52661;51.364;6.054;2022-07-06T10:09:22;2.53;;;1.17;;
65879;SDS011;52661;51.364;6.054;2022-07-06T10:11:50;1.70;;;0.32;;
65879;SDS011;52661;51.364;6.054;2022-07-06T10:14:17;4.57;;;0.98;;
65879;SDS011;52661;51.364;6.054;2022-07-06T10:16:45;1.67;;;0.82;;
65879;SDS011;52661;51.364;6.054;2022-07-06T10:19:11;1.98;;;1.40;;
65879;SDS011;52661;51.364;6.054;2022-07-06T10:21:37;3.63;;;0.93;;
65879;SDS011;52661;51.364;6.054;2022-07-06T10:24:04;1.85;;;0.98;;
65879;SDS011;52661;51.364;6.054;2022-07-06T10:26:31;2.08;;;0.95;;
65879;SDS011;52661;51.364;6.054;2022-07-06T10:28:58;2.38;;;1.17;;
65879;SDS011;52661;51.364;6.054;2022-07-06T10:31:25;4.78;;;1.48;;
65879;SDS011;52661;51.364;6.054;2022-07-06T10:33:53;1.55;;;0.63;;
65879;SDS011;52661;51.364;6.054;2022-07-06T10:36:19;1.17;;;1.08;;
65879;SDS011;52661;51.364;6.054;2022-07-06T10:38:51;1.48;;;1.05;;
65879;SDS011;52661;51.364;6.054;2022-07-06T10:41:17;1.85;;;1.10;;
65879;SDS011;52661;51.364;6.054;2022-07-06T10:43:44;2.35;;;0.88;;
65879;SDS011;52661;51.364;6.054;2022-07-06T10:46:12;3.60;;;1.23;;
65879;SDS011;52661;51.364;6.054;2022-07-06T10:48:41;1.30;;;0.90;;
65879;SDS011;52661;51.364;6.054;2022-07-06T10:51:09;2.30;;;1.40;;
65879;SDS011;52661;51.364;6.054;2022-07-06T10:53:37;3.03;;;0.80;;
65879;SDS011;52661;51.364;6.054;2022-07-06T10:56:07;4.40;;;0.73;;
65879;SDS011;52661;51.364;6.054;2022-07-06T10:58:50;1.23;;;0.52;;
65879;SDS011;52661;51.364;6.054;2022-07-06T11:01:17;8.25;;;1.95;;
65879;SDS011;52661;51.364;6.054;2022-07-06T11:06:17;1.40;;;1.02;;
65879;SDS011;52661;51.364;6.054;2022-07-06T11:11:25;2.65;;;0.93;;
65879;SDS011;52661;51.364;6.054;2022-07-06T11:14:06;1.33;;;0.68;;
65879;SDS011;52661;51.364;6.054;2022-07-06T11:16:39;1.33;;;0.90;;
65879;SDS011;52661;51.364;6.054;2022-07-06T11:19:31;4.60;;;0.88;;
65879;SDS011;52661;51.364;6.054;2022-07-06T11:24:33;3.80;;;0.70;;
65879;SDS011;52661;51.364;6.054;2022-07-06T11:27:00;1.00;;;0.75;;
65879;SDS011;52661;51.364;6.054;2022-07-06T11:29:26;2.92;;;0.98;;
65879;SDS011;52661;51.364;6.054;2022-07-06T11:31:53;2.45;;;0.77;;
65879;SDS011;52661;51.364;6.054;2022-07-06T11:34:21;2.22;;;0.77;;
65879;SDS011;52661;51.364;6.054;2022-07-06T11:36:49;1.52;;;0.70;;
65879;SDS011;52661;51.364;6.054;2022-07-06T11:39:20;2.30;;;0.93;;
65879;SDS011;52661;51.364;6.054;2022-07-06T11:41:45;2.30;;;0.63;;
65879;SDS011;52661;51.364;6.054;2022-07-06T11:44:10;2.60;;;0.80;;
65879;SDS011;52661;51.364;6.054;2022-07-06T11:46:36;3.33;;;0.63;;
65879;SDS011;52661;51.364;6.054;2022-07-06T11:49:02;1.42;;;0.68;;
65879;SDS011;52661;51.364;6.054;2022-07-06T11:51:30;3.63;;;0.63;;
65879;SDS011;52661;51.364;6.054;2022-07-06T11:53:57;1.80;;;0.85;;
65879;SDS011;52661;51.364;6.054;2022-07-06T11:56:25;1.50;;;0.88;;
65879;SDS011;52661;51.364;6.054;2022-07-06T11:58:56;2.83;;;1.00;;
65879;SDS011;52661;51.364;6.054;2022-07-06T12:01:24;1.90;;;0.80;;
65879;SDS011;52661;51.364;6.054;2022-07-06T12:03:50;1.38;;;0.63;;
65879;SDS011;52661;51.364;6.054;2022-07-06T12:06:18;1.88;;;1.05;;
65879;SDS011;52661;51.364;6.054;2022-07-06T12:08:48;3.63;;;0.82;;
65879;SDS011;52661;51.364;6.054;2022-07-06T12:11:16;3.60;;;0.73;;
65879;SDS011;52661;51.364;6.054;2022-07-06T12:14:15;2.20;;;1.55;;
65879;SDS011;52661;51.364;6.054;2022-07-06T12:16:44;3.20;;;1.38;;
65879;SDS011;52661;51.364;6.054;2022-07-06T12:19:14;1.63;;;0.95;;
65879;SDS011;52661;51.364;6.054;2022-07-06T12:21:43;2.38;;;1.33;;
65879;SDS011;52661;51.364;6.054;2022-07-06T12:24:10;1.42;;;1.20;;
65879;SDS011;52661;51.364;6.054;2022-07-06T12:26:52;3.10;;;1.10;;
65879;SDS011;52661;51.364;6.054;2022-07-06T12:29:18;1.45;;;0.98;;
65879;SDS011;52661;51.364;6.054;2022-07-06T12:34:13;1.25;;;1.08;;
65879;SDS011;52661;51.364;6.054;2022-07-06T12:36:47;3.15;;;1.52;;
65879;SDS011;52661;51.364;6.054;2022-07-06T12:39:18;1.23;;;0.43;;
65879;SDS011;52661;51.364;6.054;2022-07-06T12:44:17;2.17;;;0.70;;
65879;SDS011;52661;51.364;6.054;2022-07-06T12:46:44;3.10;;;0.20;;
65879;SDS011;52661;51.364;6.054;2022-07-06T12:49:11;2.42;;;1.15;;
65879;SDS011;52661;51.364;6.054;2022-07-06T12:51:49;3.08;;;1.17;;
65879;SDS011;52661;51.364;6.054;2022-07-06T12:54:16;2.80;;;1.08;;
65879;SDS011;52661;51.364;6.054;2022-07-06T12:57:02;2.35;;;0.95;;
65879;SDS011;52661;51.364;6.054;2022-07-06T12:59:32;1.48;;;0.85;;
65879;SDS011;52661;51.364;6.054;2022-07-06T13:01:59;3.25;;;0.98;;
65879;SDS011;52661;51.364;6.054;2022-07-06T13:04:26;3.10;;;0.95;;
65879;SDS011;52661;51.364;6.054;2022-07-06T13:06:54;2.78;;;1.10;;
65879;SDS011;52661;51.364;6.054;2022-07-06T13:09:19;2.35;;;0.93;;
65879;SDS011;52661;51.364;6.054;2022-07-06T13:11:46;2.17;;;0.43;;
65879;SDS011;52661;51.364;6.054;2022-07-06T13:14:16;2.83;;;0.98;;
65879;SDS011;52661;51.364;6.054;2022-07-06T13:16:42;2.45;;;1.17;;
65879;SDS011;52661;51.364;6.054;2022-07-06T13:19:08;4.70;;;1.50;;
65879;SDS011;52661;51.364;6.054;2022-07-06T13:21:34;1.95;;;0.85;;
65879;SDS011;52661;51.364;6.054;2022-07-06T13:24:00;1.95;;;0.95;;
65879;SDS011;52661;51.364;6.054;2022-07-06T13:26:26;2.35;;;0.80;;
65879;SDS011;52661;51.364;6.054;2022-07-06T13:28:51;1.45;;;0.55;;
65879;SDS011;52661;51.364;6.054;2022-07-06T13:31:16;3.63;;;1.43;;
65879;SDS011;52661;51.364;6.054;2022-07-06T13:33:42;2.37;;;1.00;;
65879;SDS011;52661;51.364;6.054;2022-07-06T13:36:07;1.70;;;0.80;;
65879;SDS011;52661;51.364;6.054;2022-07-06T13:38:32;2.35;;;0.85;;
65879;SDS011;52661;51.364;6.054;2022-07-06T13:40:58;2.10;;;0.93;;
65879;SDS011;52661;51.364;6.054;2022-07-06T13:43:23;1.97;;;1.07;;
65879;SDS011;52661;51.364;6.054;2022-07-06T13:45:48;1.30;;;0.80;;
65879;SDS011;52661;51.364;6.054;2022-07-06T13:48:13;3.78;;;1.25;;
65879;SDS011;52661;51.364;6.054;2022-07-06T13:50:39;6.28;;;0.73;;
65879;SDS011;52661;51.364;6.054;2022-07-06T13:53:05;3.60;;;0.90;;
65879;SDS011;52661;51.364;6.054;2022-07-06T13:55:31;5.47;;;1.27;;
65879;SDS011;52661;51.364;6.054;2022-07-06T13:57:57;2.72;;;1.30;;
65879;SDS011;52661;51.364;6.054;2022-07-06T14:00:23;4.32;;;1.30;;
65879;SDS011;52661;51.364;6.054;2022-07-06T14:02:48;1.98;;;0.80;;
65879;SDS011;52661;51.364;6.054;2022-07-06T14:05:13;2.07;;;1.20;;
65879;SDS011;52661;51.364;6.054;2022-07-06T14:07:39;2.80;;;1.03;;
65879;SDS011;52661;51.364;6.054;2022-07-06T14:10:04;3.17;;;1.00;;
65879;SDS011;52661;51.364;6.054;2022-07-06T14:12:30;2.67;;;1.02;;
65879;SDS011;52661;51.364;6.054;2022-07-06T14:14:55;2.63;;;0.90;;
65879;SDS011;52661;51.364;6.054;2022-07-06T14:17:20;2.03;;;0.90;;
65879;SDS011;52661;51.364;6.054;2022-07-06T14:19:47;1.40;;;0.98;;
65879;SDS011;52661;51.364;6.054;2022-07-06T14:22:13;1.88;;;1.25;;
65879;SDS011;52661;51.364;6.054;2022-07-06T14:24:38;1.13;;;0.87;;
65879;SDS011;52661;51.364;6.054;2022-07-06T14:27:04;3.27;;;0.97;;
65879;SDS011;52661;51.364;6.054;2022-07-06T14:29:29;2.25;;;1.33;;
65879;SDS011;52661;51.364;6.054;2022-07-06T14:31:54;1.40;;;0.40;;
65879;SDS011;52661;51.364;6.054;2022-07-06T14:34:20;2.53;;;1.10;;
65879;SDS011;52661;51.364;6.054;2022-07-06T14:36:45;1.23;;;0.87;;
65879;SDS011;52661;51.364;6.054;2022-07-06T14:39:10;2.90;;;1.23;;
65879;SDS011;52661;51.364;6.054;2022-07-06T14:41:37;3.00;;;1.02;;
65879;SDS011;52661;51.364;6.054;2022-07-06T14:44:03;1.85;;;0.98;;
65879;SDS011;52661;51.364;6.054;2022-07-06T14:46:29;1.50;;;1.10;;
65879;SDS011;52661;51.364;6.054;2022-07-06T14:48:55;6.28;;;1.17;;
65879;SDS011;52661;51.364;6.054;2022-07-06T14:51:20;2.70;;;1.07;;
65879;SDS011;52661;51.364;6.054;2022-07-06T14:53:45;2.10;;;1.53;;
65879;SDS011;52661;51.364;6.054;2022-07-06T14:56:10;2.77;;;1.77;;
65879;SDS011;52661;51.364;6.054;2022-07-06T14:58:36;1.70;;;1.10;;
65879;SDS011;52661;51.364;6.054;2022-07-06T15:01:01;2.60;;;1.27;;
65879;SDS011;52661;51.364;6.054;2022-07-06T15:03:27;3.33;;;0.93;;